createdAt,value
2022-11-15T00:01:21.754Z,101016.95
2022-11-15T00:02:49.266Z,101006.41
2022-11-15T00:05:35.093Z,101000.92
2022-11-15T00:07:03.514Z,101013.73
2022-11-15T00:09:49.309Z,101007.88
2022-11-15T00:11:16.198Z,101012.57
2022-11-15T00:12:44.551Z,101006.34
2022-11-15T00:14:13.122Z,100995.67
2022-11-15T00:16:57.551Z,100994.55
2022-11-15T00:18:25.196Z,100987.78
2022-11-15T00:19:53.610Z,100991.34
2022-11-15T00:22:37.451Z,100980.19
2022-11-15T00:24:06.766Z,100978.00
2022-11-15T00:26:50.617Z,100972.55
2022-11-15T00:28:18.543Z,100972.16
2022-11-15T00:29:46.603Z,100966.15
2022-11-15T00:31:15.919Z,100969.85
2022-11-15T00:32:44.804Z,100956.66
2022-11-15T00:35:28.824Z,100950.34
2022-11-15T00:36:57.261Z,100954.29
2022-11-15T00:39:40.002Z,100945.93
2022-11-15T00:41:09.982Z,100953.45
2022-11-15T00:42:38.291Z,100949.16
2022-11-15T00:45:21.213Z,100946.41
2022-11-15T00:48:06.173Z,100943.94
2022-11-15T00:50:50.678Z,100945.81
2022-11-15T00:52:18.856Z,100951.45
2022-11-15T00:55:01.393Z,100949.16
2022-11-15T00:56:29.527Z,100950.37
2022-11-15T00:59:12.370Z,100950.73
2022-11-15T01:00:40.000Z,100951.14
2022-11-15T01:03:23.994Z,100936.72
2022-11-15T01:04:52.296Z,100944.26
2022-11-15T01:06:21.192Z,100939.94
2022-11-15T01:09:10.927Z,100928.18
2022-11-15T01:11:54.355Z,100916.69
2022-11-15T01:13:22.204Z,100918.92
2022-11-15T01:14:50.753Z,100920.73
2022-11-15T01:16:19.942Z,100921.70
2022-11-15T01:17:47.823Z,100923.59
2022-11-15T01:20:31.298Z,100918.06
2022-11-15T01:23:13.019Z,100912.08
2022-11-15T01:24:40.715Z,100915.98
2022-11-15T01:27:27.987Z,100913.12
2022-11-15T01:28:54.812Z,100910.88
2022-11-15T01:30:22.438Z,100915.32
2022-11-15T01:31:51.673Z,100909.91
2022-11-15T01:33:20.220Z,100910.72
2022-11-15T01:34:47.447Z,100913.32
2022-11-15T01:37:34.450Z,100911.05
2022-11-15T01:40:17.522Z,100886.88
2022-11-15T01:41:46.289Z,100894.33
2022-11-15T01:46:22.598Z,100891.83
2022-11-15T01:47:54.466Z,100885.07
2022-11-15T01:49:25.436Z,100882.34
2022-11-15T01:50:53.883Z,100887.66
2022-11-15T01:52:25.047Z,100880.45
2022-11-15T01:53:54.920Z,100883.95
2022-11-15T01:56:49.714Z,100877.10
2022-11-15T01:58:17.136Z,100872.25
2022-11-15T01:59:46.711Z,100872.25
2022-11-15T02:02:31.951Z,100866.50
2022-11-15T02:05:22.542Z,100867.53
2022-11-15T02:06:51.110Z,100868.09
2022-11-15T02:08:21.435Z,100860.16
2022-11-15T02:09:50.427Z,100862.09
2022-11-15T02:11:19.016Z,100861.20
2022-11-15T02:14:06.051Z,100863.66
2022-11-15T02:17:17.454Z,100853.91
2022-11-15T02:18:51.185Z,100856.05
2022-11-15T02:20:42.263Z,100855.22
2022-11-15T02:22:33.050Z,100854.41
2022-11-15T02:26:10.183Z,100851.37
2022-11-15T02:29:30.267Z,100856.76
2022-11-15T02:32:55.991Z,100848.97
2022-11-15T02:36:05.222Z,100846.48
2022-11-15T02:39:01.988Z,100847.34
2022-11-15T02:40:34.063Z,100851.23
2022-11-15T02:43:48.643Z,100850.95
2022-11-15T02:47:01.096Z,100842.01
2022-11-15T02:51:14.410Z,100835.58
2022-11-15T02:52:43.503Z,100838.53
2022-11-15T02:55:36.445Z,100832.65
2022-11-15T02:57:06.102Z,100828.62
2022-11-15T03:00:07.786Z,100824.71
2022-11-15T03:03:07.209Z,100822.38
2022-11-15T03:08:45.055Z,100808.36
2022-11-15T03:11:45.746Z,100804.78
2022-11-15T03:13:29.077Z,100808.75
2022-11-15T03:16:39.682Z,100796.97
2022-11-15T03:20:51.441Z,100798.92
2022-11-15T03:23:40.095Z,100790.03
2022-11-15T03:26:28.147Z,100787.23
2022-11-15T03:28:00.166Z,100794.69
2022-11-15T03:30:50.488Z,100795.95
2022-11-15T03:33:37.412Z,100788.64
2022-11-15T03:36:29.855Z,100783.17
2022-11-15T03:39:39.038Z,100776.21
2022-11-15T03:42:46.194Z,100773.66
2022-11-15T03:45:44.156Z,100766.83
2022-11-15T03:48:42.440Z,100771.36
2022-11-15T03:50:17.188Z,100771.75
2022-11-15T03:51:45.792Z,100771.03
2022-11-15T03:54:28.888Z,100764.43
2022-11-15T03:55:56.297Z,100754.19
2022-11-15T03:58:39.402Z,100756.56
2022-11-15T04:01:24.677Z,100760.11
2022-11-15T04:04:09.221Z,100750.49
2022-11-15T04:05:37.461Z,100752.65
2022-11-15T04:07:15.577Z,100760.61
2022-11-15T04:08:43.745Z,100765.97
2022-11-15T04:10:12.510Z,100759.90
2022-11-15T04:12:55.480Z,100749.66
2022-11-15T04:15:56.955Z,100748.69
2022-11-15T04:18:39.228Z,100746.81
2022-11-15T04:22:03.629Z,100736.99
2022-11-15T04:25:06.410Z,100736.99
2022-11-15T04:27:50.655Z,100738.83
2022-11-15T04:29:40.265Z,100736.67
2022-11-15T04:32:24.139Z,100721.34
2022-11-15T04:35:07.707Z,100724.06
2022-11-15T04:38:12.320Z,100712.61
2022-11-15T04:41:00.107Z,100724.95
2022-11-15T04:42:28.273Z,100720.80
2022-11-15T04:43:56.175Z,100725.34
2022-11-15T04:45:24.763Z,100719.95
2022-11-15T04:48:38.645Z,100718.97
2022-11-15T04:51:22.083Z,100711.33
2022-11-15T04:54:09.997Z,100706.00
2022-11-15T04:55:38.903Z,100702.94
2022-11-15T04:57:07.221Z,100703.85
2022-11-15T04:59:49.804Z,100702.55
2022-11-15T05:02:35.216Z,100692.47
2022-11-15T05:05:39.022Z,100692.50
2022-11-15T05:08:23.065Z,100694.48
2022-11-15T05:11:04.974Z,100687.08
2022-11-15T05:13:48.606Z,100694.31
2022-11-15T05:15:17.400Z,100695.41
2022-11-15T05:18:04.500Z,100685.91
2022-11-15T05:19:32.132Z,100689.74
2022-11-15T05:22:23.931Z,100681.92
2022-11-15T05:25:09.246Z,100681.98
2022-11-15T05:26:38.281Z,100680.58
2022-11-15T05:28:06.495Z,100692.98
2022-11-15T05:30:49.379Z,100677.61
2022-11-15T05:33:36.215Z,100672.22
2022-11-15T05:36:34.059Z,100675.80
2022-11-15T05:39:19.060Z,100674.05
2022-11-15T05:42:08.865Z,100666.56
2022-11-15T05:43:40.114Z,100675.92
2022-11-15T05:45:08.617Z,100669.70
2022-11-15T05:48:03.873Z,100670.63
2022-11-15T05:50:51.140Z,100658.08
2022-11-15T05:52:23.174Z,100663.05
2022-11-15T05:55:10.680Z,100652.03
2022-11-15T05:57:55.219Z,100653.02
2022-11-15T06:00:40.026Z,100646.13
2022-11-15T06:02:09.240Z,100658.13
2022-11-15T06:04:55.471Z,100646.61
2022-11-15T06:07:37.254Z,100646.20
2022-11-15T06:10:19.833Z,100651.39
2022-11-15T06:13:05.182Z,100640.18
2022-11-15T06:15:47.087Z,100650.65
2022-11-15T06:18:29.034Z,100645.52
2022-11-15T06:21:12.758Z,100641.17
2022-11-15T06:22:40.473Z,100647.05
2022-11-15T06:25:24.252Z,100644.13
2022-11-15T06:28:08.500Z,100640.73
2022-11-15T06:30:53.313Z,100636.39
2022-11-15T06:32:20.095Z,100642.90
2022-11-15T06:35:06.066Z,100639.42
2022-11-15T06:37:53.509Z,100639.92
2022-11-15T06:40:39.234Z,100645.73
2022-11-15T06:43:23.238Z,100625.84
2022-11-15T06:44:58.010Z,100643.83
2022-11-15T06:47:48.275Z,100625.38
2022-11-15T06:50:30.209Z,100627.14
2022-11-15T06:51:57.082Z,100633.86
2022-11-15T06:54:39.811Z,100629.50
2022-11-15T06:57:24.064Z,100620.99
2022-11-15T07:00:08.467Z,100627.25
2022-11-15T07:01:36.917Z,100628.52
2022-11-15T07:04:19.762Z,100622.46
2022-11-15T07:07:11.363Z,100621.47
2022-11-15T07:08:39.045Z,100625.51
2022-11-15T07:10:09.224Z,100622.63
2022-11-15T07:11:36.730Z,100625.30
2022-11-15T07:14:20.872Z,100622.30
2022-11-15T07:17:07.107Z,100620.81
2022-11-15T07:18:36.128Z,100617.38
2022-11-15T07:20:04.450Z,100620.07
2022-11-15T07:21:34.481Z,100620.89
2022-11-15T07:24:25.960Z,100609.66
2022-11-15T07:27:09.185Z,100613.37
2022-11-15T07:28:37.814Z,100607.34
2022-11-15T07:30:09.763Z,100608.82
2022-11-15T07:33:01.390Z,100604.03
2022-11-15T07:35:43.618Z,100598.70
2022-11-15T07:37:12.006Z,100603.65
2022-11-15T07:39:54.819Z,100590.72
2022-11-15T07:41:22.536Z,100601.83
2022-11-15T07:44:12.508Z,100583.88
2022-11-15T07:47:01.368Z,100586.04
2022-11-15T07:48:42.260Z,100585.69
2022-11-15T07:49:58.934Z,100582.75
2022-11-15T07:51:26.263Z,100582.66
2022-11-15T07:52:57.490Z,100585.19
2022-11-15T07:55:42.472Z,100572.75
2022-11-15T07:57:11.411Z,100580.88
2022-11-15T07:58:38.960Z,100575.28
2022-11-15T08:01:23.631Z,100568.36
2022-11-15T08:04:08.034Z,100557.76
2022-11-15T08:06:52.771Z,100557.55
2022-11-15T08:09:35.907Z,100550.36
2022-11-15T08:11:04.258Z,100556.16
2022-11-15T08:12:31.434Z,100555.16
2022-11-15T08:15:15.481Z,100541.67
2022-11-15T08:17:59.465Z,100531.30
2022-11-15T08:20:43.631Z,100539.16
2022-11-15T08:23:28.146Z,100530.67
2022-11-15T08:24:56.331Z,100533.59
2022-11-15T08:26:23.844Z,100536.27
2022-11-15T08:29:09.265Z,100530.16
2022-11-15T08:30:42.635Z,100535.94
2022-11-15T08:32:10.312Z,100536.09
2022-11-15T08:33:37.613Z,100531.45
2022-11-15T08:36:23.224Z,100528.23
2022-11-15T08:39:06.960Z,100527.38
2022-11-15T08:41:49.133Z,100521.01
2022-11-15T08:44:51.761Z,100522.14
2022-11-15T08:47:35.673Z,100516.75
2022-11-15T08:50:18.987Z,100519.73
2022-11-15T08:53:21.622Z,100510.20
2022-11-15T08:56:06.376Z,100510.59
2022-11-15T08:57:34.009Z,100512.23
2022-11-15T08:59:01.544Z,100518.33
2022-11-15T09:02:05.454Z,100508.03
2022-11-15T09:03:33.389Z,100512.93
2022-11-15T09:06:16.277Z,100513.61
2022-11-15T09:07:44.111Z,100509.20
2022-11-15T09:09:11.549Z,100506.61
2022-11-15T09:10:39.819Z,100507.49
2022-11-15T09:13:23.442Z,100499.47
2022-11-15T09:16:06.369Z,100497.45
2022-11-15T09:18:49.297Z,100491.72
2022-11-15T09:21:34.406Z,100492.26
2022-11-15T09:24:23.912Z,100475.80
2022-11-15T09:27:06.802Z,100475.78
2022-11-15T09:29:50.146Z,100467.48
2022-11-15T09:31:21.003Z,100474.80
2022-11-15T09:34:02.525Z,100464.82
2022-11-15T09:36:45.621Z,100457.94
2022-11-15T09:39:29.221Z,100449.55
2022-11-15T09:44:35.799Z,100443.34
2022-11-15T09:47:39.818Z,100433.05
2022-11-15T09:49:07.966Z,100428.20
2022-11-15T09:50:50.298Z,100430.02
2022-11-15T09:52:00.541Z,100429.94
2022-11-15T09:53:13.679Z,100428.22
2022-11-15T09:57:54.347Z,100420.44
2022-11-15T10:00:47.122Z,100418.41
2022-11-15T10:02:16.963Z,100426.53
2022-11-15T10:04:45.476Z,100409.38
2022-11-15T10:07:25.835Z,100418.10
2022-11-15T10:10:31.503Z,100418.16
2022-11-15T10:12:57.626Z,100406.33
2022-11-15T10:15:38.823Z,100396.91
2022-11-15T10:18:46.103Z,100406.44
2022-11-15T10:21:58.203Z,100394.17
2022-11-15T10:24:29.098Z,100389.89
2022-11-15T10:25:39.183Z,100396.05
2022-11-15T10:28:28.389Z,100383.18
2022-11-15T10:31:01.393Z,100385.64
2022-11-15T10:32:19.622Z,100392.11
2022-11-15T10:34:52.880Z,100372.59
2022-11-15T10:37:32.360Z,100371.30
2022-11-15T10:38:55.111Z,100371.78
2022-11-15T10:41:34.985Z,100362.33
2022-11-15T10:44:28.221Z,100350.44
2022-11-15T10:45:38.683Z,100359.52
2022-11-15T10:46:57.685Z,100349.55
2022-11-15T10:49:33.979Z,100336.29
2022-11-15T10:52:04.070Z,100330.95
2022-11-15T10:54:55.582Z,100329.44
2022-11-15T10:56:08.684Z,100327.85
2022-11-15T10:58:41.992Z,100317.77
2022-11-15T11:02:37.817Z,100314.66
2022-11-15T11:06:53.776Z,100303.81
2022-11-15T11:08:17.408Z,100300.58
2022-11-15T11:09:44.145Z,100307.58
2022-11-15T11:12:15.175Z,100281.59
2022-11-15T11:14:46.483Z,100282.22
2022-11-15T11:17:39.051Z,100284.25
2022-11-15T11:22:03.463Z,100274.45
2022-11-15T11:23:17.216Z,100274.06
2022-11-15T11:26:23.211Z,100270.30
2022-11-15T11:27:38.419Z,100267.16
2022-11-15T11:30:41.936Z,100255.34
2022-11-15T11:33:50.647Z,100251.99
2022-11-15T11:36:52.394Z,100235.33
2022-11-15T11:41:21.498Z,100232.33
2022-11-15T11:44:09.901Z,100227.06
2022-11-15T11:46:57.355Z,100227.23
2022-11-15T11:49:54.907Z,100224.48
2022-11-15T11:54:13.478Z,100215.20
2022-11-15T11:57:01.611Z,100203.57
2022-11-15T11:58:21.551Z,100209.25
2022-11-15T12:02:33.058Z,100193.00
2022-11-15T12:05:20.979Z,100188.26
2022-11-15T12:08:31.596Z,100186.44
2022-11-15T12:09:53.360Z,100187.17
2022-11-15T12:14:10.872Z,100177.97
2022-11-15T12:16:41.231Z,100176.48
2022-11-15T12:19:05.760Z,100172.00
2022-11-15T12:21:50.116Z,100174.58
2022-11-15T12:24:28.596Z,100167.83
2022-11-15T12:25:45.232Z,100171.77
2022-11-15T12:28:58.651Z,100160.75
2022-11-15T12:32:53.667Z,100146.39
2022-11-15T12:35:39.682Z,100147.88
2022-11-15T12:38:12.705Z,100141.11
2022-11-15T12:41:18.051Z,100127.58
2022-11-15T12:44:00.180Z,100133.38
2022-11-15T12:47:04.626Z,100125.62
2022-11-15T12:49:43.118Z,100130.78
2022-11-15T12:52:16.239Z,100117.52
2022-11-15T12:54:57.409Z,100123.39
2022-11-15T12:57:35.522Z,100114.31
2022-11-15T12:58:59.653Z,100121.83
2022-11-15T13:01:43.138Z,100120.19
2022-11-15T13:04:15.986Z,100119.34
2022-11-15T13:08:10.037Z,100112.17
2022-11-15T13:10:58.109Z,100103.48
2022-11-15T13:13:45.785Z,100105.45
2022-11-15T13:16:21.278Z,100103.72
2022-11-15T13:18:55.810Z,100104.69
2022-11-15T13:21:45.365Z,100098.28
2022-11-15T13:23:23.612Z,100102.33
2022-11-15T13:26:05.060Z,100094.49
2022-11-15T13:28:40.421Z,100090.80
2022-11-15T13:31:16.844Z,100081.08
2022-11-15T13:33:41.545Z,100082.86
2022-11-15T13:36:22.616Z,100071.41
2022-11-15T13:38:57.651Z,100074.94
2022-11-15T13:41:50.683Z,100074.09
2022-11-15T13:44:27.013Z,100063.40
2022-11-15T13:45:36.477Z,100061.32
2022-11-15T13:46:45.697Z,100065.72
2022-11-15T13:49:12.464Z,100064.61
2022-11-15T13:51:51.975Z,100059.17
2022-11-15T13:53:04.897Z,100053.57
2022-11-15T13:54:19.986Z,100048.99
2022-11-15T13:55:33.074Z,100047.34
2022-11-15T13:58:24.360Z,100043.47
2022-11-15T14:01:00.884Z,100041.67
2022-11-15T14:03:38.981Z,100039.00
2022-11-15T14:06:15.676Z,100037.27
2022-11-15T14:09:01.926Z,100030.29
2022-11-15T14:13:31.580Z,100030.87
2022-11-15T14:17:35.136Z,100015.64
2022-11-15T14:20:05.446Z,100016.50
2022-11-15T14:22:34.064Z,100005.91
2022-11-15T14:25:19.492Z,99999.53
2022-11-15T14:28:12.736Z,99992.19
2022-11-15T14:29:24.445Z,99995.58
2022-11-15T14:31:48.353Z,99987.96
2022-11-15T14:32:56.925Z,100000.21
2022-11-15T14:35:24.188Z,99982.13
2022-11-15T14:36:32.882Z,99995.14
2022-11-15T14:38:46.671Z,99979.61
2022-11-15T14:42:39.142Z,99976.45
2022-11-15T14:45:24.840Z,99978.32
2022-11-15T14:46:33.732Z,99981.58
2022-11-15T14:48:58.933Z,99972.05
2022-11-15T14:51:34.473Z,99971.20
2022-11-15T14:54:06.367Z,99966.80
2022-11-15T14:56:39.331Z,99959.54
2022-11-15T14:59:03.161Z,99956.11
2022-11-15T15:00:13.919Z,99962.05
2022-11-15T15:01:26.211Z,99960.31
2022-11-15T15:03:52.631Z,99953.86
2022-11-15T15:05:04.655Z,99958.84
2022-11-15T15:07:30.473Z,99957.55
2022-11-15T15:10:24.481Z,99959.28
2022-11-15T15:12:49.968Z,99951.98
2022-11-15T15:15:19.810Z,99953.53
2022-11-15T15:17:45.348Z,99951.62
2022-11-15T15:20:10.912Z,99942.67
2022-11-15T15:21:36.482Z,99943.27
2022-11-15T15:23:57.807Z,99943.52
2022-11-15T15:25:35.238Z,99943.27
2022-11-15T15:26:45.425Z,99943.36
2022-11-15T15:29:11.870Z,99935.51
2022-11-15T15:31:39.673Z,99930.25
2022-11-15T15:32:52.663Z,99935.16
2022-11-15T15:35:19.942Z,99932.66
2022-11-15T20:25:50.675Z,99608.68
2022-11-15T20:27:00.613Z,99616.79
2022-11-15T20:29:25.504Z,99616.59
2022-11-15T20:31:49.237Z,99614.66
2022-11-15T20:32:58.100Z,99619.94
2022-11-15T20:34:07.272Z,99609.96
2022-11-15T20:36:31.766Z,99610.34
2022-11-15T20:37:41.440Z,99614.52
2022-11-15T20:38:52.197Z,99611.25
2022-11-15T20:40:00.638Z,99607.86
2022-11-15T20:41:10.212Z,99604.02
2022-11-15T20:43:34.038Z,99604.04
2022-11-15T20:45:58.478Z,99601.90
2022-11-15T20:48:24.501Z,99602.96
2022-11-15T20:50:48.482Z,99600.23
2022-11-15T20:53:15.521Z,99597.91
2022-11-15T20:55:42.104Z,99600.02
2022-11-15T20:56:51.383Z,99603.30
2022-11-15T20:59:15.365Z,99590.77
2022-11-15T21:01:41.467Z,99597.91
2022-11-15T21:04:07.167Z,99598.41
2022-11-15T21:05:17.345Z,99601.78
2022-11-15T21:07:43.000Z,99595.73
2022-11-15T21:09:12.658Z,99596.43
2022-11-15T21:10:40.079Z,99594.84
2022-11-15T21:13:22.491Z,99589.64
2022-11-15T21:14:31.124Z,99587.88
2022-11-15T21:15:40.000Z,99594.06
2022-11-15T21:16:49.969Z,99588.93
2022-11-15T21:19:14.581Z,99583.52
2022-11-15T21:21:42.195Z,99572.26
2022-11-15T21:24:08.940Z,99570.47
2022-11-15T21:26:34.078Z,99570.05
2022-11-15T21:28:57.830Z,99569.45
2022-11-15T21:30:08.545Z,99569.94
2022-11-15T21:32:33.654Z,99569.50
2022-11-15T21:33:42.992Z,99570.14
2022-11-15T21:34:54.942Z,99570.88
2022-11-15T21:37:18.914Z,99562.88
2022-11-15T21:38:29.119Z,99564.36
2022-11-15T21:40:54.885Z,99560.02
2022-11-15T21:42:04.878Z,99560.84
2022-11-15T21:43:15.626Z,99565.31
2022-11-15T21:45:39.308Z,99562.38
2022-11-15T21:46:48.296Z,99558.41
2022-11-15T21:49:12.693Z,99552.01
2022-11-15T21:50:21.572Z,99550.16
2022-11-15T21:51:31.410Z,99555.41
2022-11-15T21:53:57.270Z,99546.44
2022-11-15T21:56:25.038Z,99553.41
2022-11-15T21:57:33.787Z,99561.20
2022-11-15T22:00:37.957Z,99553.63
2022-11-15T22:03:20.421Z,99554.17
2022-11-15T22:04:29.957Z,99555.97
2022-11-15T22:06:54.294Z,99549.89
2022-11-15T22:08:05.049Z,99552.45
2022-11-15T22:09:16.446Z,99555.97
2022-11-15T22:11:40.812Z,99541.09
2022-11-15T22:14:06.585Z,99533.06
2022-11-15T22:16:31.403Z,99535.84
2022-11-15T22:19:13.976Z,99541.20
2022-11-15T22:21:42.211Z,99534.45
2022-11-15T22:24:09.309Z,99526.64
2022-11-15T22:25:19.595Z,99529.83
2022-11-15T22:27:45.170Z,99515.39
